Time;durP1;ratioP1;P1;durP2;ratioP2;P2;SDS_P1;SDS_P2;PMS_P1;PMS_P2;Temp;Humidity;BMP_temperature;BMP_pressure;BME280_temperature;BME280_humidity;BME280_pressure;Samples;Min_cycle;Max_cycle;Signal;HPM_P1;HPM_P2
2022/04/05 00:00:32;;;;;;;1.15;0.65;;;9.00;67.90;;;;;;20633042;28;20289;-70
2022/04/05 00:10:34;;;;;;;1.13;0.50;;;9.00;67.90;;;;;;20647493;28;20548;-69
2022/04/05 00:20:35;;;;;;;1.92;0.40;;;9.00;68.00;;;;;;20631415;28;20401;-69
2022/04/05 00:30:35;;;;;;;0.68;0.55;;;9.00;68.00;;;;;;20645752;28;20046;-69
2022/04/05 00:40:37;;;;;;;0.77;0.43;;;9.10;68.10;;;;;;20646143;28;20034;-69
2022/04/05 00:50:37;;;;;;;4.53;0.50;;;9.00;68.10;;;;;;20627905;28;20042;-69
2022/04/05 01:00:39;;;;;;;0.60;0.30;;;9.00;68.10;;;;;;20643672;28;20053;-69
2022/04/05 01:10:41;;;;;;;8.50;0.45;;;9.00;68.20;;;;;;20643985;28;20487;-70
2022/04/05 01:20:43;;;;;;;3.63;0.40;;;9.10;68.30;;;;;;20642752;28;20042;-71
2022/04/05 01:30:43;;;;;;;2.13;0.80;;;9.00;68.30;;;;;;20642906;28;20069;-68
2022/04/05 01:40:44;;;;;;;0.32;0.22;;;9.00;68.40;;;;;;20643233;28;20038;-69
2022/04/05 01:50:44;;;;;;;0.57;0.30;;;9.00;68.70;;;;;;20642949;28;20660;-70
2022/04/05 02:00:45;;;;;;;0.50;0.35;;;9.00;68.80;;;;;;20657751;28;20129;-71
2022/04/05 02:10:46;;;;;;;0.47;0.30;;;9.00;68.90;;;;;;20651196;28;20042;-69
2022/04/05 02:20:49;;;;;;;0.95;0.30;;;9.00;69.00;;;;;;21071796;22;20147;-74
2022/04/05 02:30:53;;;;;;;1.00;0.30;;;9.00;68.80;;;;;;20901247;28;20044;-73
2022/04/05 02:40:59;;;;;;;1.70;0.70;;;9.00;68.70;;;;;;20900177;28;20072;-74
2022/04/05 02:51:01;;;;;;;2.83;0.55;;;9.00;68.70;;;;;;20867044;28;20041;-73
2022/04/05 03:01:03;;;;;;;0.88;0.30;;;9.00;68.60;;;;;;20883084;28;20390;-73
2022/04/05 03:11:04;;;;;;;1.58;0.35;;;9.00;68.50;;;;;;20897497;28;20048;-73
2022/04/05 03:21:05;;;;;;;0.10;0.10;;;9.00;68.50;;;;;;20896723;28;20036;-74
2022/04/05 03:31:07;;;;;;;1.35;0.30;;;9.00;69.20;;;;;;20895535;28;20064;-73
2022/04/05 03:41:07;;;;;;;3.38;0.50;;;9.00;68.60;;;;;;20894634;28;20052;-73
2022/04/05 03:51:09;;;;;;;2.58;0.50;;;9.00;68.60;;;;;;20893885;28;20044;-73
2022/04/05 04:01:12;;;;;;;2.63;0.50;;;9.00;68.50;;;;;;20893646;28;20033;-75
2022/04/05 04:11:13;;;;;;;5.10;1.03;;;9.00;68.50;;;;;;20860020;28;20043;-74
2022/04/05 04:21:14;;;;;;;4.22;0.45;;;9.00;68.30;;;;;;20893598;28;20303;-74
2022/04/05 04:31:15;;;;;;;4.90;1.02;;;9.10;68.00;;;;;;20873989;28;20467;-74
2022/04/05 04:41:15;;;;;;;2.73;0.73;;;9.30;67.70;;;;;;20874044;28;20394;-74
2022/04/05 04:51:16;;;;;;;2.67;0.60;;;9.50;67.20;;;;;;20873958;28;20383;-74
2022/04/05 05:01:16;;;;;;;3.42;0.35;;;9.70;66.50;;;;;;20889202;28;20413;-74
2022/04/05 05:11:17;;;;;;;1.15;0.50;;;9.90;65.70;;;;;;20888125;28;20463;-74
2022/04/05 05:21:19;;;;;;;3.05;0.63;;;10.10;65.20;;;;;;20870097;28;20467;-73
2022/04/05 05:31:19;;;;;;;1.15;0.40;;;10.00;64.90;;;;;;20903435;28;20045;-74
2022/04/05 05:41:20;;;;;;;1.83;0.65;;;9.80;64.90;;;;;;20859106;28;20037;-74
2022/04/05 05:51:20;;;;;;;0.98;0.35;;;9.70;65.10;;;;;;20919967;28;20041;-74
2022/04/05 06:01:23;;;;;;;3.78;1.70;;;9.60;65.40;;;;;;20852060;28;20160;-74
2022/04/05 06:11:23;;;;;;;1.75;0.47;;;9.50;65.60;;;;;;20815107;28;20044;-74
2022/04/05 06:21:24;;;;;;;1.65;0.80;;;9.40;65.80;;;;;;20899119;28;20487;-73
2022/04/05 06:31:24;;;;;;;1.73;0.60;;;9.30;65.90;;;;;;20866491;28;20123;-74
2022/04/05 06:41:26;;;;;;;1.25;0.38;;;9.30;66.10;;;;;;20896379;28;20045;-72
2022/04/05 06:51:28;;;;;;;5.53;0.75;;;9.30;66.20;;;;;;20880596;28;20036;-73
2022/04/05 07:01:29;;;;;;;1.83;0.60;;;9.30;66.30;;;;;;20881899;28;20041;-73
2022/04/05 07:11:29;;;;;;;1.30;0.47;;;9.20;66.40;;;;;;20895807;28;20064;-75
2022/04/05 07:21:30;;;;;;;4.78;0.63;;;9.20;66.50;;;;;;20863578;28;20051;-73
2022/04/05 07:31:30;;;;;;;3.03;0.90;;;9.20;66.50;;;;;;20894430;28;20079;-74
2022/04/05 07:41:31;;;;;;;3.08;0.70;;;9.20;66.60;;;;;;20863080;28;20127;-75
2022/04/05 07:51:31;;;;;;;2.57;0.67;;;9.10;66.60;;;;;;20893355;28;20107;-75
2022/04/05 08:01:32;;;;;;;4.60;0.98;;;9.10;66.60;;;;;;20903611;28;20838;-79
2022/04/05 08:11:34;;;;;;;1.20;0.43;;;9.10;66.60;;;;;;20857955;28;20040;-74
2022/04/05 08:21:35;;;;;;;4.30;0.60;;;9.10;66.70;;;;;;20908745;28;20145;-78
2022/04/05 08:31:36;;;;;;;3.50;0.77;;;9.10;66.70;;;;;;20896768;28;20086;-81
2022/04/05 08:41:37;;;;;;;4.50;1.08;;;9.10;66.70;;;;;;20877782;28;20040;-78
2022/04/05 08:51:37;;;;;;;6.65;0.85;;;9.10;66.70;;;;;;20892241;28;20040;-80
2022/04/05 09:01:38;;;;;;;5.45;1.85;;;9.20;66.70;;;;;;20908862;28;20037;-78
2022/04/05 09:11:49;;;;;;;2.22;0.68;;;9.20;66.70;;;;;;20890756;28;20501;-73
2022/04/05 09:21:55;;;;;;;7.00;2.17;;;9.10;66.60;;;;;;20890578;28;20454;-78
2022/04/05 09:31:56;;;;;;;5.40;0.90;;;9.20;66.70;;;;;;20860016;28;20387;-78
2022/04/05 09:42:05;;;;;;;4.57;1.98;;;9.20;66.70;;;;;;20778036;28;20068;-80
2022/04/05 09:52:31;;;;;;;2.97;0.93;;;9.20;66.70;;;;;;20794026;28;20352;-80
2022/04/05 10:02:32;;;;;;;6.72;0.85;;;9.20;66.80;;;;;;20793981;28;20045;-80
2022/04/05 10:12:32;;;;;;;3.00;0.80;;;9.30;66.80;;;;;;20792259;28;20025;-77
2022/04/05 10:22:33;;;;;;;8.18;1.80;;;9.30;66.70;;;;;;20773736;28;20388;-83
2022/04/05 10:32:53;;;;;;;2.75;1.05;;;9.40;66.40;;;;;;20800807;28;20132;-79
2022/04/05 10:42:54;;;;;;;3.00;0.65;;;9.40;66.30;;;;;;20839338;28;20163;-77
2022/04/05 10:53:14;;;;;;;3.10;0.80;;;9.40;66.30;;;;;;20823424;28;20488;-78
2022/04/05 11:03:15;;;;;;;2.05;0.63;;;9.30;66.20;;;;;;20852883;28;20041;-77
2022/04/05 11:13:38;;;;;;;3.63;1.40;;;9.30;66.30;;;;;;20816845;28;20388;-74
2022/04/05 11:23:57;;;;;;;2.60;1.05;;;9.40;66.30;;;;;;20875530;28;20507;-81
2022/04/05 11:33:59;;;;;;;6.07;1.35;;;9.40;66.30;;;;;;20853840;28;20079;-80
2022/04/05 11:44:01;;;;;;;5.55;0.73;;;9.40;66.60;;;;;;20885295;28;20048;-79
2022/04/05 11:54:21;;;;;;;3.38;0.80;;;9.40;66.90;;;;;;20892024;28;20136;-81
2022/04/05 12:04:22;;;;;;;3.30;0.82;;;9.40;67.30;;;;;;20906949;28;20461;-78
2022/04/05 12:14:24;;;;;;;3.58;0.90;;;9.40;67.70;;;;;;20890839;28;20094;-77
2022/04/05 12:24:25;;;;;;;2.47;0.90;;;9.40;68.40;;;;;;20874533;28;20391;-77
2022/04/05 12:34:26;;;;;;;5.43;0.93;;;9.30;68.90;;;;;;20856309;28;20065;-77
2022/04/05 12:44:27;;;;;;;1.45;0.68;;;9.30;69.10;;;;;;20835524;28;20128;-77
2022/04/05 12:54:29;;;;;;;3.15;0.70;;;9.30;69.00;;;;;;20788184;28;20495;-78
2022/04/05 13:04:29;;;;;;;1.42;0.70;;;9.40;69.10;;;;;;20873658;28;20658;-77
2022/04/05 13:14:30;;;;;;;4.53;0.73;;;9.40;69.50;;;;;;20871928;28;20038;-78
2022/04/05 13:24:46;;;;;;;5.03;0.68;;;9.40;68.60;;;;;;20825786;28;20119;-76
2022/04/05 13:34:46;;;;;;;2.25;0.70;;;9.40;68.30;;;;;;20831114;28;20441;-73
2022/04/05 13:44:47;;;;;;;3.28;0.75;;;9.40;68.10;;;;;;20837289;28;20037;-77
2022/04/05 13:54:48;;;;;;;1.45;0.68;;;9.40;68.20;;;;;;20818084;28;20034;-74
2022/04/05 14:04:49;;;;;;;1.35;0.70;;;9.50;68.60;;;;;;20877399;28;20128;-74
2022/04/05 14:14:49;;;;;;;1.27;0.70;;;9.50;68.30;;;;;;20915742;28;20067;-75
2022/04/05 14:24:50;;;;;;;1.08;0.50;;;9.50;68.30;;;;;;20899497;28;20303;-76
2022/04/05 14:34:50;;;;;;;4.88;1.15;;;9.50;68.20;;;;;;20881455;28;20121;-75
2022/04/05 14:44:52;;;;;;;0.63;0.45;;;9.50;68.10;;;;;;20861912;28;20033;-76
2022/04/05 14:54:52;;;;;;;1.33;0.63;;;9.50;68.00;;;;;;20849713;28;20476;-76
2022/04/05 15:04:53;;;;;;;0.55;0.35;;;9.50;67.80;;;;;;20836533;28;20029;-76
2022/04/05 15:14:53;;;;;;;0.57;0.38;;;9.60;67.60;;;;;;20861388;28;20040;-76
2022/04/05 15:24:54;;;;;;;1.63;0.68;;;9.70;67.30;;;;;;20877079;28;20516;-76
2022/04/05 15:34:55;;;;;;;1.70;0.50;;;9.80;66.80;;;;;;20910145;28;20036;-78
2022/04/05 15:44:55;;;;;;;2.53;0.50;;;9.90;66.40;;;;;;20824006;28;20291;-79
2022/04/05 15:54:56;;;;;;;2.00;0.60;;;10.00;66.00;;;;;;20809834;28;20515;-79
2022/04/05 16:04:57;;;;;;;2.17;1.60;;;10.00;66.00;;;;;;20776767;28;20365;-77
2022/04/05 16:14:58;;;;;;;4.53;1.17;;;9.90;66.80;;;;;;20887387;28;20111;-77
2022/04/05 16:24:58;;;;;;;1.80;0.83;;;10.00;67.60;;;;;;20889777;28;20045;-79
2022/04/05 16:34:59;;;;;;;1.67;0.88;;;9.90;67.70;;;;;;20877426;28;20795;-80
2022/04/05 16:45:00;;;;;;;1.80;1.33;;;9.90;68.00;;;;;;20858785;28;20029;-81
2022/04/05 16:55:01;;;;;;;1.55;1.00;;;9.80;68.20;;;;;;20811223;28;20033;-76
2022/04/05 17:05:06;;;;;;;6.95;0.98;;;9.80;68.10;;;;;;20791701;28;20152;-79
2022/04/05 17:15:13;;;;;;;2.65;0.77;;;9.80;67.90;;;;;;20792736;28;20056;-79
2022/04/05 17:25:15;;;;;;;;;;;9.80;67.90;;;;;;20807924;28;20045;-79
2022/04/05 17:35:16;;;;;;;1.70;0.90;;;9.80;67.90;;;;;;20808493;28;20375;-79
2022/04/05 17:45:18;;;;;;;2.97;0.90;;;9.80;67.90;;;;;;20855387;28;20065;-80
2022/04/05 17:55:19;;;;;;;3.63;1.33;;;9.80;68.20;;;;;;20907899;28;20036;-80
2022/04/05 18:05:22;;;;;;;2.55;1.00;;;9.80;68.40;;;;;;20908137;28;20546;-81
2022/04/05 18:15:23;;;;;;;2.90;1.23;;;9.80;68.60;;;;;;20906422;28;20044;-80
2022/04/05 18:25:24;;;;;;;2.85;1.63;;;9.70;68.90;;;;;;20905923;28;20048;-81
2022/04/05 18:35:25;;;;;;;3.40;1.60;;;9.70;69.10;;;;;;20888090;28;20041;-81
2022/04/05 18:45:26;;;;;;;3.03;1.30;;;9.70;69.40;;;;;;20866687;28;20391;-81
2022/04/05 18:55:27;;;;;;;3.03;1.40;;;9.80;69.90;;;;;;20835603;28;20460;-81
2022/04/05 19:05:27;;;;;;;1.98;1.50;;;9.70;70.30;;;;;;20817262;28;20061;-80
2022/04/05 19:15:28;;;;;;;2.08;1.30;;;9.70;70.80;;;;;;20798721;28;20033;-79
2022/04/05 19:25:34;;;;;;;2.53;0.98;;;9.70;71.20;;;;;;20821162;28;20178;-79
2022/04/05 19:35:34;;;;;;;2.45;1.15;;;9.70;71.60;;;;;;20799410;28;20627;-79
2022/04/05 19:45:35;;;;;;;1.55;0.98;;;9.70;72.10;;;;;;20783888;28;20044;-78
2022/04/05 19:55:37;;;;;;;2.30;0.93;;;9.80;72.10;;;;;;20798883;28;20439;-79
2022/04/05 20:05:38;;;;;;;1.83;0.90;;;9.80;72.00;;;;;;20810683;28;20296;-79
2022/04/05 20:15:39;;;;;;;2.55;0.98;;;9.80;71.90;;;;;;20813809;28;20029;-79
2022/04/05 20:25:40;;;;;;;1.70;0.80;;;9.80;71.90;;;;;;20812658;28;20476;-79
2022/04/05 20:35:41;;;;;;;1.55;0.82;;;9.80;71.90;;;;;;20794694;28;20040;-79
2022/04/05 20:45:42;;;;;;;1.52;0.63;;;9.80;71.70;;;;;;20827561;28;20052;-79
2022/04/05 20:55:43;;;;;;;2.05;0.90;;;9.80;71.70;;;;;;20793471;28;20029;-79
2022/04/05 21:05:44;;;;;;;0.75;0.60;;;9.80;71.70;;;;;;20793161;28;20052;-79
2022/04/05 21:15:45;;;;;;;1.13;0.50;;;9.80;71.70;;;;;;20792833;28;20128;-78
2022/04/05 21:25:46;;;;;;;1.02;0.60;;;9.80;71.70;;;;;;20808012;28;20046;-78
2022/04/05 21:35:47;;;;;;;1.40;0.73;;;9.80;71.60;;;;;;20825128;28;20030;-78
2022/04/05 21:45:47;;;;;;;1.15;0.93;;;9.80;71.70;;;;;;20793158;28;20041;-77
2022/04/05 21:55:48;;;;;;;1.38;0.88;;;9.80;71.70;;;;;;20774128;28;20072;-79
2022/04/05 22:05:49;;;;;;;1.83;0.80;;;9.80;71.80;;;;;;20806340;28;20057;-78
2022/04/05 22:15:49;;;;;;;0.82;0.70;;;9.80;71.70;;;;;;20789697;28;20051;-79
2022/04/05 22:25:50;;;;;;;0.82;0.68;;;9.80;71.80;;;;;;20814823;28;20046;-78
2022/04/05 22:35:50;;;;;;;1.35;0.75;;;9.80;72.40;;;;;;20787291;28;20455;-78
2022/04/05 22:45:51;;;;;;;1.05;0.70;;;9.80;71.80;;;;;;20787043;28;20087;-79
2022/04/05 22:55:52;;;;;;;0.73;0.52;;;9.80;71.80;;;;;;20785926;28;20460;-78
2022/04/05 23:05:52;;;;;;;1.20;0.65;;;9.80;71.80;;;;;;20817192;28;20038;-78
2022/04/05 23:15:53;;;;;;;1.48;0.75;;;9.80;71.80;;;;;;20800741;28;20543;-78
2022/04/05 23:25:54;;;;;;;1.83;0.98;;;9.80;71.80;;;;;;20799137;28;20491;-78
2022/04/05 23:35:54;;;;;;;1.40;0.80;;;9.80;71.80;;;;;;20814758;28;20097;-78
2022/04/05 23:45:55;;;;;;;1.25;0.75;;;9.80;71.90;;;;;;20797686;28;20347;-78
2022/04/05 23:55:57;;;;;;;1.05;0.68;;;9.80;71.90;;;;;;20780568;28;20495;-78
